sensor_id;sensor_type;location;lat;lon;timestamp;temperature;humidity
19261;DHT22;75986;48.588;9.216;2024-03-23T00:54:53;21.10;96.00
19261;DHT22;75986;48.588;9.216;2024-03-23T00:57:19;21.00;96.00
19261;DHT22;75986;48.588;9.216;2024-03-23T00:59:46;21.00;96.00
19261;DHT22;75986;48.588;9.216;2024-03-23T01:02:12;21.00;96.00
19261;DHT22;75986;48.588;9.216;2024-03-23T01:04:39;21.00;96.00
19261;DHT22;75986;48.588;9.216;2024-03-23T01:07:05;21.00;96.00
19261;DHT22;75986;48.588;9.216;2024-03-23T01:09:32;21.00;96.00
19261;DHT22;75986;48.588;9.216;2024-03-23T01:12:01;21.00;96.00
19261;DHT22;75986;48.588;9.216;2024-03-23T01:14:29;21.00;96.00
19261;DHT22;75986;48.588;9.216;2024-03-23T01:16:55;21.00;96.10
19261;DHT22;75986;48.588;9.216;2024-03-23T01:19:21;21.00;96.00
19261;DHT22;75986;48.588;9.216;2024-03-23T01:21:48;21.00;96.10
19261;DHT22;75986;48.588;9.216;2024-03-23T01:24:14;21.00;96.10
19261;DHT22;75986;48.588;9.216;2024-03-23T01:26:41;21.00;96.10
19261;DHT22;75986;48.588;9.216;2024-03-23T01:29:10;21.00;96.10
19261;DHT22;75986;48.588;9.216;2024-03-23T01:31:36;21.00;96.10
19261;DHT22;75986;48.588;9.216;2024-03-23T01:34:03;21.00;96.10
19261;DHT22;75986;48.588;9.216;2024-03-23T01:36:30;21.00;96.10
19261;DHT22;75986;48.588;9.216;2024-03-23T01:38:56;21.00;96.10
19261;DHT22;75986;48.588;9.216;2024-03-23T01:41:24;21.00;96.10
19261;DHT22;75986;48.588;9.216;2024-03-23T01:43:50;21.00;96.10
19261;DHT22;75986;48.588;9.216;2024-03-23T01:46:19;21.00;96.20
19261;DHT22;75986;48.588;9.216;2024-03-23T01:48:46;21.00;96.10
19261;DHT22;75986;48.588;9.216;2024-03-23T01:51:13;21.00;96.20
19261;DHT22;75986;48.588;9.216;2024-03-23T01:53:39;21.00;96.20
19261;DHT22;75986;48.588;9.216;2024-03-23T01:56:06;21.00;96.20
19261;DHT22;75986;48.588;9.216;2024-03-23T01:58:33;21.00;96.20
19261;DHT22;75986;48.588;9.216;2024-03-23T02:00:59;21.00;96.20
19261;DHT22;75986;48.588;9.216;2024-03-23T02:03:28;21.00;96.20
19261;DHT22;75986;48.588;9.216;2024-03-23T02:05:55;21.00;96.20
19261;DHT22;75986;48.588;9.216;2024-03-23T02:08:23;21.00;96.20
19261;DHT22;75986;48.588;9.216;2024-03-23T02:10:50;21.00;96.20
19261;DHT22;75986;48.588;9.216;2024-03-23T02:13:18;21.00;96.20
19261;DHT22;75986;48.588;9.216;2024-03-23T02:15:45;21.00;96.30
19261;DHT22;75986;48.588;9.216;2024-03-23T02:18:11;21.00;96.30
19261;DHT22;75986;48.588;9.216;2024-03-23T02:20:40;21.00;96.20
19261;DHT22;75986;48.588;9.216;2024-03-23T02:23:15;21.00;96.30
19261;DHT22;75986;48.588;9.216;2024-03-23T02:25:42;21.00;96.30
19261;DHT22;75986;48.588;9.216;2024-03-23T02:28:09;21.00;96.30
19261;DHT22;75986;48.588;9.216;2024-03-23T02:30:35;21.00;96.30
19261;DHT22;75986;48.588;9.216;2024-03-23T02:33:02;21.00;96.30
19261;DHT22;75986;48.588;9.216;2024-03-23T02:35:29;20.90;96.30
19261;DHT22;75986;48.588;9.216;2024-03-23T02:37:56;21.00;96.30
19261;DHT22;75986;48.588;9.216;2024-03-23T02:40:25;20.90;96.30
19261;DHT22;75986;48.588;9.216;2024-03-23T02:42:52;20.90;96.30
19261;DHT22;75986;48.588;9.216;2024-03-23T02:45:19;21.00;96.30
19261;DHT22;75986;48.588;9.216;2024-03-23T02:47:45;21.00;96.30
19261;DHT22;75986;48.588;9.216;2024-03-23T02:50:12;21.00;96.30
19261;DHT22;75986;48.588;9.216;2024-03-23T02:52:38;20.90;96.30
19261;DHT22;75986;48.588;9.216;2024-03-23T02:55:05;20.90;96.30
19261;DHT22;75986;48.588;9.216;2024-03-23T02:57:34;20.90;96.30
19261;DHT22;75986;48.588;9.216;2024-03-23T03:00:01;20.90;96.30
19261;DHT22;75986;48.588;9.216;2024-03-23T03:02:27;20.90;96.40
19261;DHT22;75986;48.588;9.216;2024-03-23T03:04:54;20.90;96.30
19261;DHT22;75986;48.588;9.216;2024-03-23T03:07:20;20.90;96.30
19261;DHT22;75986;48.588;9.216;2024-03-23T03:09:47;20.90;96.30
19261;DHT22;75986;48.588;9.216;2024-03-23T03:12:13;20.90;96.40
19261;DHT22;75986;48.588;9.216;2024-03-23T03:14:42;20.90;96.40
19261;DHT22;75986;48.588;9.216;2024-03-23T03:17:09;20.90;96.40
19261;DHT22;75986;48.588;9.216;2024-03-23T03:19:35;20.90;96.40
19261;DHT22;75986;48.588;9.216;2024-03-23T03:22:02;20.90;96.40
19261;DHT22;75986;48.588;9.216;2024-03-23T03:24:28;20.90;96.40
19261;DHT22;75986;48.588;9.216;2024-03-23T03:26:54;20.90;96.40
19261;DHT22;75986;48.588;9.216;2024-03-23T03:29:21;20.90;96.40
19261;DHT22;75986;48.588;9.216;2024-03-23T03:31:50;20.90;96.40
19261;DHT22;75986;48.588;9.216;2024-03-23T03:34:17;20.90;96.40
19261;DHT22;75986;48.588;9.216;2024-03-23T03:36:44;20.90;96.40
19261;DHT22;75986;48.588;9.216;2024-03-23T03:39:11;20.90;96.40
19261;DHT22;75986;48.588;9.216;2024-03-23T03:41:37;20.90;96.40
19261;DHT22;75986;48.588;9.216;2024-03-23T03:44:04;20.90;96.50
19261;DHT22;75986;48.588;9.216;2024-03-23T03:46:30;20.90;96.40
19261;DHT22;75986;48.588;9.216;2024-03-23T03:48:59;20.90;96.40
19261;DHT22;75986;48.588;9.216;2024-03-23T03:51:26;20.90;96.50
19261;DHT22;75986;48.588;9.216;2024-03-23T03:53:52;20.90;96.50
19261;DHT22;75986;48.588;9.216;2024-03-23T03:56:19;20.90;96.50
19261;DHT22;75986;48.588;9.216;2024-03-23T03:58:45;20.90;96.40
19261;DHT22;75986;48.588;9.216;2024-03-23T04:01:11;20.90;96.50
19261;DHT22;75986;48.588;9.216;2024-03-23T04:03:38;20.90;96.50
19261;DHT22;75986;48.588;9.216;2024-03-23T04:06:08;20.90;96.50
19261;DHT22;75986;48.588;9.216;2024-03-23T04:08:34;20.90;96.50
19261;DHT22;75986;48.588;9.216;2024-03-23T04:11:01;20.90;96.50
19261;DHT22;75986;48.588;9.216;2024-03-23T04:13:27;20.90;96.50
19261;DHT22;75986;48.588;9.216;2024-03-23T04:15:54;20.90;96.50
19261;DHT22;75986;48.588;9.216;2024-03-23T04:18:21;20.90;96.50
19261;DHT22;75986;48.588;9.216;2024-03-23T04:20:48;20.90;96.50
19261;DHT22;75986;48.588;9.216;2024-03-23T04:23:17;20.90;96.50
19261;DHT22;75986;48.588;9.216;2024-03-23T04:25:43;20.90;96.50
19261;DHT22;75986;48.588;9.216;2024-03-23T04:28:10;20.90;96.50
19261;DHT22;75986;48.588;9.216;2024-03-23T04:30:36;20.90;96.50
19261;DHT22;75986;48.588;9.216;2024-03-23T04:33:04;20.90;96.50
19261;DHT22;75986;48.588;9.216;2024-03-23T04:35:30;20.90;96.50
19261;DHT22;75986;48.588;9.216;2024-03-23T04:37:58;20.90;96.50
19261;DHT22;75986;48.588;9.216;2024-03-23T04:40:27;20.90;96.60
19261;DHT22;75986;48.588;9.216;2024-03-23T04:42:54;20.90;96.50
19261;DHT22;75986;48.588;9.216;2024-03-23T04:45:20;20.90;96.60
19261;DHT22;75986;48.588;9.216;2024-03-23T04:47:48;20.90;96.60
19261;DHT22;75986;48.588;9.216;2024-03-23T04:50:15;20.90;96.60
19261;DHT22;75986;48.588;9.216;2024-03-23T04:52:41;20.90;96.60
19261;DHT22;75986;48.588;9.216;2024-03-23T04:55:09;20.90;96.60
19261;DHT22;75986;48.588;9.216;2024-03-23T04:57:38;20.90;96.60
19261;DHT22;75986;48.588;9.216;2024-03-23T05:00:07;20.90;96.60
19261;DHT22;75986;48.588;9.216;2024-03-23T05:02:35;20.90;96.60
19261;DHT22;75986;48.588;9.216;2024-03-23T05:05:02;20.90;96.60
19261;DHT22;75986;48.588;9.216;2024-03-23T05:07:28;20.90;96.60
19261;DHT22;75986;48.588;9.216;2024-03-23T05:09:55;20.90;96.60
19261;DHT22;75986;48.588;9.216;2024-03-23T05:12:21;20.90;96.60
19261;DHT22;75986;48.588;9.216;2024-03-23T05:14:50;20.90;96.60
19261;DHT22;75986;48.588;9.216;2024-03-23T05:17:17;20.90;96.70
19261;DHT22;75986;48.588;9.216;2024-03-23T05:19:43;20.90;96.70
19261;DHT22;75986;48.588;9.216;2024-03-23T05:22:11;20.90;96.60
19261;DHT22;75986;48.588;9.216;2024-03-23T05:24:38;20.90;96.60
19261;DHT22;75986;48.588;9.216;2024-03-23T05:27:05;20.90;96.70
19261;DHT22;75986;48.588;9.216;2024-03-23T05:29:31;20.80;96.60
19261;DHT22;75986;48.588;9.216;2024-03-23T05:32:00;20.90;96.70
19261;DHT22;75986;48.588;9.216;2024-03-23T05:34:27;20.90;96.70
19261;DHT22;75986;48.588;9.216;2024-03-23T05:36:53;20.80;96.70
19261;DHT22;75986;48.588;9.216;2024-03-23T05:39:20;20.80;96.70
19261;DHT22;75986;48.588;9.216;2024-03-23T05:41:47;20.80;96.70
19261;DHT22;75986;48.588;9.216;2024-03-23T05:44:14;20.80;96.70
19261;DHT22;75986;48.588;9.216;2024-03-23T05:46:41;20.80;96.70
19261;DHT22;75986;48.588;9.216;2024-03-23T05:49:10;20.80;96.70
19261;DHT22;75986;48.588;9.216;2024-03-23T05:51:36;20.80;96.70
19261;DHT22;75986;48.588;9.216;2024-03-23T05:54:03;20.80;96.70
19261;DHT22;75986;48.588;9.216;2024-03-23T05:56:30;20.80;96.70
19261;DHT22;75986;48.588;9.216;2024-03-23T05:58:56;20.80;96.70
19261;DHT22;75986;48.588;9.216;2024-03-23T06:01:23;20.80;96.70
19261;DHT22;75986;48.588;9.216;2024-03-23T06:03:49;20.80;96.70
19261;DHT22;75986;48.588;9.216;2024-03-23T06:06:19;20.80;96.80
19261;DHT22;75986;48.588;9.216;2024-03-23T06:08:45;20.80;96.80
19261;DHT22;75986;48.588;9.216;2024-03-23T06:11:12;20.80;96.80
19261;DHT22;75986;48.588;9.216;2024-03-23T06:13:38;20.80;96.80
19261;DHT22;75986;48.588;9.216;2024-03-23T06:16:05;20.80;96.80
19261;DHT22;75986;48.588;9.216;2024-03-23T06:18:32;20.80;97.10
19261;DHT22;75986;48.588;9.216;2024-03-23T06:20:59;20.80;96.80
19261;DHT22;75986;48.588;9.216;2024-03-23T06:23:28;20.80;96.80
19261;DHT22;75986;48.588;9.216;2024-03-23T06:25:54;20.80;96.90
19261;DHT22;75986;48.588;9.216;2024-03-23T06:28:21;20.80;96.90
19261;DHT22;75986;48.588;9.216;2024-03-23T06:30:47;20.80;96.90
19261;DHT22;75986;48.588;9.216;2024-03-23T06:33:14;20.80;96.90
19261;DHT22;75986;48.588;9.216;2024-03-23T06:35:40;20.90;97.00
19261;DHT22;75986;48.588;9.216;2024-03-23T06:38:07;20.80;97.00
19261;DHT22;75986;48.588;9.216;2024-03-23T06:40:36;20.80;97.00
19261;DHT22;75986;48.588;9.216;2024-03-23T06:43:03;20.80;97.00
19261;DHT22;75986;48.588;9.216;2024-03-23T06:45:29;20.80;97.40
19261;DHT22;75986;48.588;9.216;2024-03-23T06:47:56;20.80;97.00
19261;DHT22;75986;48.588;9.216;2024-03-23T06:50:23;20.80;97.10
19261;DHT22;75986;48.588;9.216;2024-03-23T06:52:50;20.80;97.10
19261;DHT22;75986;48.588;9.216;2024-03-23T06:55:16;20.80;97.10
19261;DHT22;75986;48.588;9.216;2024-03-23T06:57:45;20.80;97.10
19261;DHT22;75986;48.588;9.216;2024-03-23T07:00:13;20.80;97.10
19261;DHT22;75986;48.588;9.216;2024-03-23T07:02:40;20.80;97.20
19261;DHT22;75986;48.588;9.216;2024-03-23T07:05:06;20.80;97.20
19261;DHT22;75986;48.588;9.216;2024-03-23T07:07:34;20.90;97.40
19261;DHT22;75986;48.588;9.216;2024-03-23T07:10:00;20.90;97.40
19261;DHT22;75986;48.588;9.216;2024-03-23T07:12:27;20.90;97.40
19261;DHT22;75986;48.588;9.216;2024-03-23T07:14:56;20.90;97.70
19261;DHT22;75986;48.588;9.216;2024-03-23T07:17:22;20.80;97.30
19261;DHT22;75986;48.588;9.216;2024-03-23T07:19:49;20.80;97.30
19261;DHT22;75986;48.588;9.216;2024-03-23T07:22:15;20.90;97.30
19261;DHT22;75986;48.588;9.216;2024-03-23T07:24:41;20.80;97.00
19261;DHT22;75986;48.588;9.216;2024-03-23T07:27:08;20.90;97.10
19261;DHT22;75986;48.588;9.216;2024-03-23T07:29:35;20.90;97.10
19261;DHT22;75986;48.588;9.216;2024-03-23T07:32:05;20.90;97.00
19261;DHT22;75986;48.588;9.216;2024-03-23T07:34:31;20.90;97.00
19261;DHT22;75986;48.588;9.216;2024-03-23T07:36:58;20.90;96.90
19261;DHT22;75986;48.588;9.216;2024-03-23T07:39:24;20.90;96.90
19261;DHT22;75986;48.588;9.216;2024-03-23T07:41:51;20.90;96.80
19261;DHT22;75986;48.588;9.216;2024-03-23T07:44:17;20.90;96.80
19261;DHT22;75986;48.588;9.216;2024-03-23T07:46:44;20.90;96.70
19261;DHT22;75986;48.588;9.216;2024-03-23T07:49:13;20.90;96.80
19261;DHT22;75986;48.588;9.216;2024-03-23T07:51:39;20.90;96.80
19261;DHT22;75986;48.588;9.216;2024-03-23T07:54:06;20.90;96.80
19261;DHT22;75986;48.588;9.216;2024-03-23T07:56:32;20.90;96.80
19261;DHT22;75986;48.588;9.216;2024-03-23T07:58:59;20.90;96.80
19261;DHT22;75986;48.588;9.216;2024-03-23T08:01:25;20.90;96.70
19261;DHT22;75986;48.588;9.216;2024-03-23T08:03:52;20.90;96.80
19261;DHT22;75986;48.588;9.216;2024-03-23T08:06:21;20.90;96.80
19261;DHT22;75986;48.588;9.216;2024-03-23T08:08:52;20.90;96.80
19261;DHT22;75986;48.588;9.216;2024-03-23T08:11:19;20.90;96.80
19261;DHT22;75986;48.588;9.216;2024-03-23T08:13:45;20.90;96.90
19261;DHT22;75986;48.588;9.216;2024-03-23T08:16:12;20.90;96.90
19261;DHT22;75986;48.588;9.216;2024-03-23T08:18:39;20.90;96.80
19261;DHT22;75986;48.588;9.216;2024-03-23T08:21:06;20.90;96.80
19261;DHT22;75986;48.588;9.216;2024-03-23T08:23:36;20.90;96.70
19261;DHT22;75986;48.588;9.216;2024-03-23T08:26:05;20.90;96.80
19261;DHT22;75986;48.588;9.216;2024-03-23T08:28:32;20.90;96.80
19261;DHT22;75986;48.588;9.216;2024-03-23T08:31:01;20.90;96.80
19261;DHT22;75986;48.588;9.216;2024-03-23T08:33:28;20.90;96.80
19261;DHT22;75986;48.588;9.216;2024-03-23T08:35:56;20.90;96.90
19261;DHT22;75986;48.588;9.216;2024-03-23T08:38:23;20.90;96.70
19261;DHT22;75986;48.588;9.216;2024-03-23T08:40:59;20.90;96.90
19261;DHT22;75986;48.588;9.216;2024-03-23T08:43:27;20.90;96.90
19261;DHT22;75986;48.588;9.216;2024-03-23T08:45:53;20.90;96.80
19261;DHT22;75986;48.588;9.216;2024-03-23T08:48:20;20.90;96.80
19261;DHT22;75986;48.588;9.216;2024-03-23T08:50:46;20.90;96.80
19261;DHT22;75986;48.588;9.216;2024-03-23T08:53:13;20.90;96.60
19261;DHT22;75986;48.588;9.216;2024-03-23T08:55:40;20.90;96.90
19261;DHT22;75986;48.588;9.216;2024-03-23T08:58:09;20.90;96.50
19261;DHT22;75986;48.588;9.216;2024-03-23T09:00:36;20.90;96.50
19261;DHT22;75986;48.588;9.216;2024-03-23T09:03:03;20.90;96.30
19261;DHT22;75986;48.588;9.216;2024-03-23T09:05:29;20.90;96.30
19261;DHT22;75986;48.588;9.216;2024-03-23T09:07:56;20.90;96.60
19261;DHT22;75986;48.588;9.216;2024-03-23T09:10:23;20.90;96.20
19261;DHT22;75986;48.588;9.216;2024-03-23T09:12:49;20.90;96.20
19261;DHT22;75986;48.588;9.216;2024-03-23T09:15:19;20.90;96.10
19261;DHT22;75986;48.588;9.216;2024-03-23T09:17:45;20.90;96.10
19261;DHT22;75986;48.588;9.216;2024-03-23T09:20:12;20.90;96.10
19261;DHT22;75986;48.588;9.216;2024-03-23T09:22:38;20.90;96.10
19261;DHT22;75986;48.588;9.216;2024-03-23T09:25:05;20.90;96.00
19261;DHT22;75986;48.588;9.216;2024-03-23T09:27:32;20.90;96.40
19261;DHT22;75986;48.588;9.216;2024-03-23T09:29:58;20.90;95.90
19261;DHT22;75986;48.588;9.216;2024-03-23T09:32:27;20.90;95.90
19261;DHT22;75986;48.588;9.216;2024-03-23T09:34:54;20.90;95.90
19261;DHT22;75986;48.588;9.216;2024-03-23T09:37:20;20.90;95.90
19261;DHT22;75986;48.588;9.216;2024-03-23T09:39:47;20.90;95.90
19261;DHT22;75986;48.588;9.216;2024-03-23T09:42:13;20.90;95.90
19261;DHT22;75986;48.588;9.216;2024-03-23T09:44:40;20.90;95.90
19261;DHT22;75986;48.588;9.216;2024-03-23T09:47:07;20.90;95.90
19261;DHT22;75986;48.588;9.216;2024-03-23T09:49:38;20.90;95.80
19261;DHT22;75986;48.588;9.216;2024-03-23T09:52:05;20.90;95.80
19261;DHT22;75986;48.588;9.216;2024-03-23T09:54:32;20.90;95.90
19261;DHT22;75986;48.588;9.216;2024-03-23T09:56:58;20.90;95.60
19261;DHT22;75986;48.588;9.216;2024-03-23T09:59:25;20.90;95.80
19261;DHT22;75986;48.588;9.216;2024-03-23T10:01:53;20.90;95.70
19261;DHT22;75986;48.588;9.216;2024-03-23T10:04:40;20.90;95.70
19261;DHT22;75986;48.588;9.216;2024-03-23T10:07:14;20.90;95.80
19261;DHT22;75986;48.588;9.216;2024-03-23T10:09:41;20.90;95.70
19261;DHT22;75986;48.588;9.216;2024-03-23T10:12:09;20.90;95.80
19261;DHT22;75986;48.588;9.216;2024-03-23T10:14:36;20.90;95.80
19261;DHT22;75986;48.588;9.216;2024-03-23T10:17:14;20.90;95.70
19261;DHT22;75986;48.588;9.216;2024-03-23T10:19:43;20.90;95.60
19261;DHT22;75986;48.588;9.216;2024-03-23T10:22:13;20.90;95.50
19261;DHT22;75986;48.588;9.216;2024-03-23T10:24:39;20.90;95.50
19261;DHT22;75986;48.588;9.216;2024-03-23T10:27:06;20.90;95.60
19261;DHT22;75986;48.588;9.216;2024-03-23T10:29:33;20.90;95.50
19261;DHT22;75986;48.588;9.216;2024-03-23T10:32:10;20.90;95.60
19261;DHT22;75986;48.588;9.216;2024-03-23T10:34:37;20.90;95.60
19261;DHT22;75986;48.588;9.216;2024-03-23T10:37:07;20.90;95.80
19261;DHT22;75986;48.588;9.216;2024-03-23T10:39:35;20.90;95.80
19261;DHT22;75986;48.588;9.216;2024-03-23T10:42:06;20.90;95.90
19261;DHT22;75986;48.588;9.216;2024-03-23T10:44:33;20.90;95.90
19261;DHT22;75986;48.588;9.216;2024-03-23T10:47:00;21.00;95.80
19261;DHT22;75986;48.588;9.216;2024-03-23T10:49:28;21.00;95.40
19261;DHT22;75986;48.588;9.216;2024-03-23T10:51:57;21.00;95.40
19261;DHT22;75986;48.588;9.216;2024-03-23T10:54:27;21.00;94.70
19261;DHT22;75986;48.588;9.216;2024-03-23T10:56:57;20.90;93.30
19261;DHT22;75986;48.588;9.216;2024-03-23T10:59:25;20.90;93.50
19261;DHT22;75986;48.588;9.216;2024-03-23T11:01:55;20.80;92.90
19261;DHT22;75986;48.588;9.216;2024-03-23T11:04:32;20.80;92.70
19261;DHT22;75986;48.588;9.216;2024-03-23T11:07:00;20.80;92.40
19261;DHT22;75986;48.588;9.216;2024-03-23T11:09:41;20.80;92.40
19261;DHT22;75986;48.588;9.216;2024-03-23T11:12:25;20.80;92.40
19261;DHT22;75986;48.588;9.216;2024-03-23T11:14:53;20.80;92.60
19261;DHT22;75986;48.588;9.216;2024-03-23T11:17:20;20.80;92.70
19261;DHT22;75986;48.588;9.216;2024-03-23T11:19:53;20.80;93.00
19261;DHT22;75986;48.588;9.216;2024-03-23T11:22:42;20.80;93.20
19261;DHT22;75986;48.588;9.216;2024-03-23T11:25:21;20.90;93.50
19261;DHT22;75986;48.588;9.216;2024-03-23T11:27:49;20.90;93.70
19261;DHT22;75986;48.588;9.216;2024-03-23T11:30:17;20.90;93.90
19261;DHT22;75986;48.588;9.216;2024-03-23T11:32:44;20.90;94.10
19261;DHT22;75986;48.588;9.216;2024-03-23T11:35:28;20.90;94.20
19261;DHT22;75986;48.588;9.216;2024-03-23T11:38:05;20.90;94.30
19261;DHT22;75986;48.588;9.216;2024-03-23T11:40:36;20.90;94.40
19261;DHT22;75986;48.588;9.216;2024-03-23T11:43:04;20.90;94.60
19261;DHT22;75986;48.588;9.216;2024-03-23T11:45:34;20.90;94.70
19261;DHT22;75986;48.588;9.216;2024-03-23T11:48:05;20.90;94.90
19261;DHT22;75986;48.588;9.216;2024-03-23T11:50:33;20.90;95.10
19261;DHT22;75986;48.588;9.216;2024-03-23T11:53:13;20.90;95.30
19261;DHT22;75986;48.588;9.216;2024-03-23T11:55:49;20.90;95.50
19261;DHT22;75986;48.588;9.216;2024-03-23T11:58:17;20.90;95.70
19261;DHT22;75986;48.588;9.216;2024-03-23T12:00:50;21.00;95.80
19261;DHT22;75986;48.588;9.216;2024-03-23T12:03:17;21.00;95.80
19261;DHT22;75986;48.588;9.216;2024-03-23T12:05:48;20.90;95.80
19261;DHT22;75986;48.588;9.216;2024-03-23T12:08:20;20.90;96.00
19261;DHT22;75986;48.588;9.216;2024-03-23T12:10:51;21.00;96.10
19261;DHT22;75986;48.588;9.216;2024-03-23T12:13:21;21.00;96.10
19261;DHT22;75986;48.588;9.216;2024-03-23T12:15:50;21.00;96.10
19261;DHT22;75986;48.588;9.216;2024-03-23T12:18:17;21.00;96.20
19261;DHT22;75986;48.588;9.216;2024-03-23T12:20:43;21.00;96.20
19261;DHT22;75986;48.588;9.216;2024-03-23T12:23:11;21.00;96.20
19261;DHT22;75986;48.588;9.216;2024-03-23T12:25:41;21.00;96.20
19261;DHT22;75986;48.588;9.216;2024-03-23T12:28:10;21.00;96.20
19261;DHT22;75986;48.588;9.216;2024-03-23T12:30:39;21.00;96.30
19261;DHT22;75986;48.588;9.216;2024-03-23T12:33:06;21.00;96.30
19261;DHT22;75986;48.588;9.216;2024-03-23T12:35:33;21.00;96.30
19261;DHT22;75986;48.588;9.216;2024-03-23T12:38:00;21.00;96.30
19261;DHT22;75986;48.588;9.216;2024-03-23T12:40:27;21.00;96.30
19261;DHT22;75986;48.588;9.216;2024-03-23T12:42:54;21.00;96.30
19261;DHT22;75986;48.588;9.216;2024-03-23T12:45:23;21.00;96.30
19261;DHT22;75986;48.588;9.216;2024-03-23T12:47:49;21.00;96.30
19261;DHT22;75986;48.588;9.216;2024-03-23T12:50:17;21.00;96.20
19261;DHT22;75986;48.588;9.216;2024-03-23T12:52:44;21.00;96.20
19261;DHT22;75986;48.588;9.216;2024-03-23T12:55:11;21.00;96.20
19261;DHT22;75986;48.588;9.216;2024-03-23T12:57:37;21.00;96.20
19261;DHT22;75986;48.588;9.216;2024-03-23T13:00:05;21.00;96.20
19261;DHT22;75986;48.588;9.216;2024-03-23T13:02:35;21.00;96.20
19261;DHT22;75986;48.588;9.216;2024-03-23T13:05:01;21.00;96.20
19261;DHT22;75986;48.588;9.216;2024-03-23T13:07:28;21.00;96.20
19261;DHT22;75986;48.588;9.216;2024-03-23T13:09:55;21.00;96.10
19261;DHT22;75986;48.588;9.216;2024-03-23T13:12:22;21.00;96.10
19261;DHT22;75986;48.588;9.216;2024-03-23T13:14:49;21.00;96.10
19261;DHT22;75986;48.588;9.216;2024-03-23T13:17:16;21.00;96.10
19261;DHT22;75986;48.588;9.216;2024-03-23T13:19:45;21.00;96.10
19261;DHT22;75986;48.588;9.216;2024-03-23T13:22:11;21.00;96.10
19261;DHT22;75986;48.588;9.216;2024-03-23T13:24:38;21.00;96.00
19261;DHT22;75986;48.588;9.216;2024-03-23T13:27:05;21.00;96.00
19261;DHT22;75986;48.588;9.216;2024-03-23T13:29:32;20.90;95.90
19261;DHT22;75986;48.588;9.216;2024-03-23T13:31:58;20.90;95.90
19261;DHT22;75986;48.588;9.216;2024-03-23T13:34:24;20.90;95.90
19261;DHT22;75986;48.588;9.216;2024-03-23T13:36:54;20.90;95.70
19261;DHT22;75986;48.588;9.216;2024-03-23T13:39:20;20.90;95.60
19261;DHT22;75986;48.588;9.216;2024-03-23T13:41:47;20.90;95.70
19261;DHT22;75986;48.588;9.216;2024-03-23T13:44:14;20.90;95.50
19261;DHT22;75986;48.588;9.216;2024-03-23T13:46:41;20.90;95.50
19261;DHT22;75986;48.588;9.216;2024-03-23T13:49:24;20.90;95.50
19261;DHT22;75986;48.588;9.216;2024-03-23T13:51:53;20.90;95.50
19261;DHT22;75986;48.588;9.216;2024-03-23T13:54:20;20.90;95.50
19261;DHT22;75986;48.588;9.216;2024-03-23T13:56:48;20.90;95.40
19261;DHT22;75986;48.588;9.216;2024-03-23T13:59:15;20.90;95.20
19261;DHT22;75986;48.588;9.216;2024-03-23T14:01:41;20.90;95.10
19261;DHT22;75986;48.588;9.216;2024-03-23T14:04:08;20.90;95.00
19261;DHT22;75986;48.588;9.216;2024-03-23T14:06:35;20.90;95.00
19261;DHT22;75986;48.588;9.216;2024-03-23T14:09:04;20.90;95.00
19261;DHT22;75986;48.588;9.216;2024-03-23T14:11:30;20.90;95.30
19261;DHT22;75986;48.588;9.216;2024-03-23T14:13:57;20.90;94.80
19261;DHT22;75986;48.588;9.216;2024-03-23T14:16:23;20.90;94.80
19261;DHT22;75986;48.588;9.216;2024-03-23T14:18:50;20.90;94.60
19261;DHT22;75986;48.588;9.216;2024-03-23T14:21:17;20.90;94.40
19261;DHT22;75986;48.588;9.216;2024-03-23T14:23:44;20.90;94.50
19261;DHT22;75986;48.588;9.216;2024-03-23T14:26:13;20.90;94.40
19261;DHT22;75986;48.588;9.216;2024-03-23T14:28:39;20.90;94.40
19261;DHT22;75986;48.588;9.216;2024-03-23T14:31:06;20.90;94.30
19261;DHT22;75986;48.588;9.216;2024-03-23T14:33:33;20.80;94.10
19261;DHT22;75986;48.588;9.216;2024-03-23T14:35:59;20.80;94.20
19261;DHT22;75986;48.588;9.216;2024-03-23T14:38:26;20.90;94.20
19261;DHT22;75986;48.588;9.216;2024-03-23T14:40:52;20.90;94.20
19261;DHT22;75986;48.588;9.216;2024-03-23T14:43:21;21.00;94.00
19261;DHT22;75986;48.588;9.216;2024-03-23T14:46:06;21.00;93.90
19261;DHT22;75986;48.588;9.216;2024-03-23T14:48:33;21.00;93.90
19261;DHT22;75986;48.588;9.216;2024-03-23T14:51:00;20.90;93.90
19261;DHT22;75986;48.588;9.216;2024-03-23T14:53:26;20.90;93.70
19261;DHT22;75986;48.588;9.216;2024-03-23T14:55:54;20.90;93.60
19261;DHT22;75986;48.588;9.216;2024-03-23T14:58:23;20.90;93.50
19261;DHT22;75986;48.588;9.216;2024-03-23T15:00:50;20.90;93.40
19261;DHT22;75986;48.588;9.216;2024-03-23T15:03:18;20.90;93.50
19261;DHT22;75986;48.588;9.216;2024-03-23T15:05:52;20.80;93.40
19261;DHT22;75986;48.588;9.216;2024-03-23T15:08:19;20.90;93.60
19261;DHT22;75986;48.588;9.216;2024-03-23T15:10:45;20.90;93.50
19261;DHT22;75986;48.588;9.216;2024-03-23T15:13:12;20.90;94.00
19261;DHT22;75986;48.588;9.216;2024-03-23T15:15:41;20.90;93.70
19261;DHT22;75986;48.588;9.216;2024-03-23T15:18:09;20.90;94.20
19261;DHT22;75986;48.588;9.216;2024-03-23T15:20:35;20.90;94.00
19261;DHT22;75986;48.588;9.216;2024-03-23T15:23:02;21.00;94.10
19261;DHT22;75986;48.588;9.216;2024-03-23T15:25:29;21.00;94.20
19261;DHT22;75986;48.588;9.216;2024-03-23T15:27:55;21.00;94.30
19261;DHT22;75986;48.588;9.216;2024-03-23T15:30:22;21.10;94.40
19261;DHT22;75986;48.588;9.216;2024-03-23T15:32:51;21.10;94.50
19261;DHT22;75986;48.588;9.216;2024-03-23T15:35:17;21.10;94.60
19261;DHT22;75986;48.588;9.216;2024-03-23T15:37:44;21.10;94.60
19261;DHT22;75986;48.588;9.216;2024-03-23T15:40:11;21.10;94.70
19261;DHT22;75986;48.588;9.216;2024-03-23T15:42:39;21.10;94.80
19261;DHT22;75986;48.588;9.216;2024-03-23T15:45:06;21.10;94.80
19261;DHT22;75986;48.588;9.216;2024-03-23T15:47:34;21.10;94.80
19261;DHT22;75986;48.588;9.216;2024-03-23T15:50:04;21.10;94.90
19261;DHT22;75986;48.588;9.216;2024-03-23T15:52:31;21.10;95.00
19261;DHT22;75986;48.588;9.216;2024-03-23T15:54:57;21.10;95.00
19261;DHT22;75986;48.588;9.216;2024-03-23T15:57:24;21.10;95.10
19261;DHT22;75986;48.588;9.216;2024-03-23T15:59:50;21.10;95.10
19261;DHT22;75986;48.588;9.216;2024-03-23T16:02:17;21.00;95.10
19261;DHT22;75986;48.588;9.216;2024-03-23T16:04:43;21.00;95.10
19261;DHT22;75986;48.588;9.216;2024-03-23T16:07:12;21.00;95.10
19261;DHT22;75986;48.588;9.216;2024-03-23T16:09:39;21.00;95.20
19261;DHT22;75986;48.588;9.216;2024-03-23T16:12:06;21.00;95.20
19261;DHT22;75986;48.588;9.216;2024-03-23T16:14:32;21.00;95.20
19261;DHT22;75986;48.588;9.216;2024-03-23T16:16:59;21.00;95.10
19261;DHT22;75986;48.588;9.216;2024-03-23T16:19:25;21.00;95.10
19261;DHT22;75986;48.588;9.216;2024-03-23T16:21:52;21.00;95.10
19261;DHT22;75986;48.588;9.216;2024-03-23T16:24:21;21.00;95.20
19261;DHT22;75986;48.588;9.216;2024-03-23T16:26:47;21.00;95.10